Time;durP1;ratioP1;P1;durP2;ratioP2;P2;SDS_P1;SDS_P2;PMS_P1;PMS_P2;Temp;Humidity;BMP_temperature;BMP_pressure;BME280_temperature;BME280_humidity;BME280_pressure;Samples;Min_cycle;Max_cycle;Signal;HPM_P1;HPM_P2
2021/06/23 00:01:50;;;;;;;34.17;7.75;;;;;;;23.10;68.77;93793.09;6062184;23;20009;-84
2021/06/23 00:04:16;;;;;;;41.70;9.27;;;;;;;23.17;68.65;93785.09;6108064;23;20013;-84
2021/06/23 00:06:41;;;;;;;46.63;8.82;;;;;;;23.15;67.84;93790.09;6112848;23;19997;-83
2021/06/23 00:09:13;;;;;;;50.45;9.68;;;;;;;23.05;68.51;93803.41;6056559;23;20014;-84
2021/06/23 00:11:52;;;;;;;32.33;9.07;;;;;;;22.94;68.90;93786.34;6109766;23;20022;-84
2021/06/23 00:14:18;;;;;;;35.80;9.45;;;;;;;23.17;68.73;93806.66;6114161;23;20022;-83
2021/06/23 00:16:44;;;;;;;37.83;9.18;;;;;;;23.13;69.44;93815.84;6114978;23;20029;-84
2021/06/23 00:19:13;;;;;;;34.35;9.35;;;;;;;22.87;70.73;93806.66;6109684;23;20032;-84
2021/06/23 00:21:38;;;;;;;35.13;10.10;;;;;;;23.06;70.27;93821.16;6112361;23;20014;-84
2021/06/23 00:24:07;;;;;;;36.45;9.70;;;;;;;22.96;71.00;93819.09;6085091;23;20445;-84
2021/06/23 00:26:37;;;;;;;35.30;10.40;;;;;;;22.86;71.62;93821.28;6081241;23;20020;-84
2021/06/23 00:29:05;;;;;;;35.28;9.25;;;;;;;22.86;71.58;93818.59;6114295;23;20013;-83
2021/06/23 00:31:31;;;;;;;47.75;10.10;;;;;;;22.85;71.29;93822.44;6081144;23;20018;-84
2021/06/23 00:33:59;;;;;;;35.03;9.93;;;;;;;22.87;70.45;93816.69;6113177;23;20005;-84
2021/06/23 00:36:31;;;;;;;40.22;9.40;;;;;;;22.79;70.59;93813.09;6083264;23;20028;-84
2021/06/23 00:38:56;;;;;;;44.53;9.43;;;;;;;22.68;70.30;93795.97;6070940;23;20101;-83
2021/06/23 00:41:26;;;;;;;27.83;9.07;;;;;;;22.89;69.66;93823.25;6081640;23;20365;-83
2021/06/23 00:43:51;;;;;;;32.70;8.65;;;;;;;22.77;69.37;93791.13;6109114;23;20044;-84
2021/06/23 00:46:20;;;;;;;39.40;8.95;;;;;;;22.87;69.10;93803.97;6094212;23;20716;-84
2021/06/23 00:48:46;;;;;;;36.10;9.15;;;;;;;22.49;70.31;93793.41;6111418;23;20345;-84
2021/06/23 00:51:14;;;;;;;31.80;9.73;;;;;;;22.63;70.53;93823.22;6110336;23;20028;-81
2021/06/23 00:53:40;;;;;;;47.85;10.60;;;;;;;22.55;70.49;93808.09;6112053;23;20013;-82
2021/06/23 00:56:05;;;;;;;41.92;10.60;;;;;;;22.49;70.15;93796.09;6109909;23;20018;-82
2021/06/23 00:58:31;;;;;;;43.97;10.40;;;;;;;22.49;70.26;93809.56;6109392;23;20014;-83
2021/06/23 01:01:02;;;;;;;34.88;8.50;;;;;;;22.48;70.40;93802.63;6085467;23;20326;-82
2021/06/23 01:03:28;;;;;;;38.15;8.68;;;;;;;22.29;70.35;93784.66;6109591;23;20021;-82
2021/06/23 01:05:57;;;;;;;43.42;9.55;;;;;;;22.37;71.07;93796.31;6074926;23;20023;-82
2021/06/23 01:08:23;;;;;;;35.58;9.45;;;;;;;22.28;71.71;93793.09;6106201;23;20523;-82
2021/06/23 01:10:51;;;;;;;37.58;8.73;;;;;;;22.22;72.47;93791.84;6109105;23;20025;-82
2021/06/23 01:13:32;;;;;;;35.65;9.55;;;;;;;22.25;71.63;93791.13;6083396;23;20034;-81
2021/06/23 01:16:03;;;;;;;43.08;9.88;;;;;;;22.22;71.38;93800.69;6125386;23;20063;-82
2021/06/23 01:18:41;;;;;;;39.63;9.88;;;;;;;22.19;71.47;93796.03;6108555;23;20026;-82
2021/06/23 01:21:09;;;;;;;43.72;9.98;;;;;;;22.08;72.33;93791.63;6110166;23;20406;-82
2021/06/23 01:23:37;;;;;;;37.78;9.13;;;;;;;21.99;72.01;93789.19;6109425;23;20512;-82
2021/06/23 01:26:03;;;;;;;47.10;10.43;;;;;;;21.96;72.82;93787.19;6093066;23;20013;-85
2021/06/23 01:28:29;;;;;;;34.55;9.60;;;;;;;21.92;72.93;93781.75;6084025;23;20107;-82
2021/06/23 01:30:56;;;;;;;35.92;11.18;;;;;;;21.93;72.68;93769.88;6084604;23;20362;-82
2021/06/23 01:33:24;;;;;;;36.33;10.75;;;;;;;21.89;73.42;93779.75;6096438;23;20049;-82
2021/06/23 01:35:51;;;;;;;37.08;9.15;;;;;;;21.80;73.66;93763.06;6068152;23;20331;-82
2021/06/23 01:38:17;;;;;;;32.70;9.00;;;;;;;22.02;73.40;93770.41;6054530;23;20022;-82
2021/06/23 01:40:43;;;;;;;32.45;9.00;;;;;;;22.01;73.33;93763.47;6086566;23;20010;-82
2021/06/23 01:43:10;;;;;;;37.60;10.10;;;;;;;22.14;73.14;93784.81;6071528;23;20348;-85
2021/06/23 01:45:36;;;;;;;32.00;9.30;;;;;;;22.06;73.47;93780.44;6110579;23;20109;-82
2021/06/23 01:48:01;;;;;;;28.98;9.68;;;;;;;21.92;74.48;93786.34;6096621;23;20034;-82
2021/06/23 01:50:30;;;;;;;33.35;10.45;;;;;;;21.89;74.72;93793.19;6084335;23;20010;-82
2021/06/23 01:53:02;;;;;;;40.15;10.65;;;;;;;21.77;75.65;93796.09;6081801;23;20453;-82
2021/06/23 01:55:30;;;;;;;31.85;9.52;;;;;;;21.68;76.47;93814.38;6079913;23;20018;-82
2021/06/23 01:58:06;;;;;;;44.05;10.98;;;;;;;21.83;76.14;93807.31;6083459;23;20010;-82
2021/06/23 02:00:58;;;;;;;34.33;10.40;;;;;;;21.72;75.86;93798.28;6108950;23;20038;-82
2021/06/23 02:03:54;;;;;;;36.58;9.10;;;;;;;21.53;76.49;93817.94;6110304;23;20402;-84
2021/06/23 02:06:38;;;;;;;40.40;12.52;;;;;;;21.43;77.14;93808.53;6112701;23;20068;-82
2021/06/23 02:09:16;;;;;;;42.10;10.10;;;;;;;21.55;76.55;93804.94;6084828;23;20029;-82
2021/06/23 02:11:44;;;;;;;36.20;9.60;;;;;;;21.50;77.38;93797.16;6085008;23;20029;-81
2021/06/23 02:14:36;;;;;;;39.60;9.32;;;;;;;21.46;77.42;93802.44;6113465;23;20036;-82
2021/06/23 02:17:07;;;;;;;40.65;10.98;;;;;;;21.34;78.37;93804.53;6098385;23;20021;-82
2021/06/23 02:19:39;;;;;;;43.70;11.07;;;;;;;21.40;78.32;93824.63;6125919;23;20291;-82
2021/06/23 02:22:13;;;;;;;39.78;10.82;;;;;;;21.24;79.20;93818.53;6153592;23;20007;-82
2021/06/23 02:24:38;;;;;;;39.90;11.90;;;;;;;21.44;78.48;93814.69;6113264;23;20014;-82
2021/06/23 02:27:08;;;;;;;43.17;12.40;;;;;;;21.36;79.11;93823.75;6139613;23;20025;-82
2021/06/23 02:29:33;;;;;;;37.28;11.82;;;;;;;21.43;79.14;93818.50;6099343;23;20021;-81
2021/06/23 02:31:59;;;;;;;41.72;11.65;;;;;;;21.49;79.22;93817.88;6125871;23;20448;-82
2021/06/23 02:34:25;;;;;;;42.28;11.93;;;;;;;21.55;78.71;93821.06;6139612;23;20358;-82
2021/06/23 02:36:51;;;;;;;37.42;12.43;;;;;;;21.30;79.34;93809.06;6116437;23;20010;-82
2021/06/23 02:39:16;;;;;;;41.53;10.93;;;;;;;21.29;80.01;93820.94;6096234;23;20049;-82
2021/06/23 02:41:43;;;;;;;45.30;13.43;;;;;;;21.22;80.57;93826.16;6140260;23;20026;-82
2021/06/23 02:44:09;;;;;;;38.78;11.57;;;;;;;21.26;80.65;93825.09;6113378;23;20396;-83
2021/06/23 02:46:35;;;;;;;27.92;11.55;;;;;;;21.23;80.64;93820.44;6102971;23;20077;-83
2021/06/23 02:49:02;;;;;;;35.97;11.35;;;;;;;21.32;80.42;93829.06;6133245;23;20002;-82
2021/06/23 02:51:35;;;;;;;32.47;11.68;;;;;;;21.34;80.60;93832.19;6139283;23;20021;-82
2021/06/23 02:54:01;;;;;;;39.22;12.45;;;;;;;21.41;80.52;93844.97;6114252;23;20355;-82
2021/06/23 02:56:53;;;;;;;29.98;11.45;;;;;;;21.28;80.78;93844.34;6113668;23;20024;-83
2021/06/23 02:59:20;;;;;;;35.85;12.35;;;;;;;21.35;80.51;93854.47;6145252;23;20106;-82
2021/06/23 03:01:49;;;;;;;38.13;12.93;;;;;;;21.38;80.70;93851.84;6115703;23;20025;-82
2021/06/23 03:04:17;;;;;;;34.03;11.88;;;;;;;21.30;80.66;93852.84;6131596;23;20005;-82
2021/06/23 03:06:43;;;;;;;34.45;11.57;;;;;;;21.29;80.50;93864.72;6141142;23;20001;-82
2021/06/23 03:09:11;;;;;;;34.67;12.65;;;;;;;21.37;79.67;93862.94;6141535;23;20370;-82
2021/06/23 03:11:43;;;;;;;35.38;11.48;;;;;;;21.49;79.29;93862.81;6142503;23;20018;-83
2021/06/23 03:14:10;;;;;;;47.45;13.57;;;;;;;21.47;78.88;93871.22;6098655;23;20024;-82
2021/06/23 03:16:36;;;;;;;38.03;11.90;;;;;;;21.39;78.81;93849.94;6114774;23;20033;-83
2021/06/23 03:19:02;;;;;;;31.25;10.27;;;;;;;21.37;79.28;93862.94;6142055;23;20032;-82
2021/06/23 03:21:28;;;;;;;35.60;11.35;;;;;;;21.48;78.95;93863.94;6140810;23;20029;-83
2021/06/23 03:23:54;;;;;;;41.38;11.90;;;;;;;21.54;79.00;93860.63;6140111;23;20060;-83
2021/06/23 03:26:20;;;;;;;43.92;10.30;;;;;;;21.84;77.55;93850.03;6141492;23;20013;-82
2021/06/23 03:28:47;;;;;;;38.78;10.93;;;;;;;22.07;76.71;93868.88;6111019;23;20286;-83
2021/06/23 03:31:12;;;;;;;41.08;9.90;;;;;;;22.41;75.47;93870.63;6149637;23;20092;-82
2021/06/23 03:33:40;;;;;;;41.30;10.82;;;;;;;22.77;74.65;93869.25;6116359;23;20088;-83
2021/06/23 03:36:06;;;;;;;51.17;12.18;;;;;;;23.21;71.93;93874.84;6104266;23;20068;-83
2021/06/23 03:38:32;;;;;;;33.63;10.85;;;;;;;23.59;70.74;93873.84;6136451;23;20052;-83
2021/06/23 03:40:58;;;;;;;34.65;9.88;;;;;;;24.00;68.97;93885.44;6145002;23;20020;-83
2021/06/23 03:43:27;;;;;;;45.85;10.55;;;;;;;24.38;67.52;93884.31;6112507;23;20009;-83
2021/06/23 03:45:54;;;;;;;53.08;11.57;;;;;;;24.73;66.19;93877.63;6143163;23;20006;-83
2021/06/23 03:48:20;;;;;;;48.75;11.48;;;;;;;25.13;65.30;93892.94;6138676;23;20017;-83
2021/06/23 03:50:48;;;;;;;41.55;8.50;;;;;;;25.55;63.81;93889.72;6139297;23;20033;-83
2021/06/23 03:53:13;;;;;;;35.03;10.77;;;;;;;25.85;62.36;93893.69;6140100;23;20531;-83
2021/06/23 03:55:42;;;;;;;32.47;9.48;;;;;;;26.32;60.96;93893.84;6146614;23;20089;-84
2021/06/23 03:58:10;;;;;;;27.15;11.55;;;;;;;26.68;59.26;93879.91;6139924;23;20450;-83
2021/06/23 04:00:35;;;;;;;31.42;9.50;;;;;;;27.08;57.73;93862.44;6152202;23;20013;-83
2021/06/23 04:03:01;;;;;;;41.83;11.27;;;;;;;27.69;56.02;93882.06;6140479;23;20268;-83
2021/06/23 04:05:26;;;;;;;38.90;9.02;;;;;;;27.85;54.59;93887.06;6142471;23;20017;-84
2021/06/23 04:07:52;;;;;;;33.95;9.88;;;;;;;28.23;53.98;93883.38;6140575;23;20483;-84
2021/06/23 04:10:18;;;;;;;34.40;10.15;;;;;;;28.81;52.16;93890.72;6142876;23;20009;-84
2021/06/23 04:12:46;;;;;;;40.25;10.55;;;;;;;29.33;50.85;93887.16;6115518;23;20009;-84
2021/06/23 04:15:13;;;;;;;47.50;10.75;;;;;;;29.60;49.71;93896.97;6139181;23;20018;-84
2021/06/23 04:17:39;;;;;;;29.45;9.63;;;;;;;29.97;48.57;93893.44;6121417;23;20104;-83
2021/06/23 04:20:07;;;;;;;45.60;12.75;;;;;;;30.27;47.74;93900.81;6116502;23;20073;-83
2021/06/23 04:22:32;;;;;;;49.53;11.00;;;;;;;30.69;46.46;93893.97;6106943;23;20018;-83
2021/06/23 04:24:59;;;;;;;41.92;11.65;;;;;;;30.94;45.78;93909.94;6113863;23;20002;-84
2021/06/23 04:27:25;;;;;;;50.50;11.60;;;;;;;31.39;44.91;93908.41;6109465;23;20028;-83
2021/06/23 04:29:50;;;;;;;36.97;10.65;;;;;;;31.46;44.81;93909.47;6113199;23;20128;-83
2021/06/23 04:32:18;;;;;;;41.70;10.30;;;;;;;31.49;44.56;93916.84;6110269;23;20022;-83
2021/06/23 04:34:44;;;;;;;36.40;9.65;;;;;;;31.07;45.24;93902.75;6116786;23;20024;-83
2021/06/23 04:37:12;;;;;;;39.30;10.15;;;;;;;31.27;45.23;93884.47;6080694;23;20121;-83
2021/06/23 04:39:37;;;;;;;31.25;10.85;;;;;;;31.72;44.63;93914.84;6113837;23;20124;-83
2021/06/23 04:42:13;;;;;;;42.03;11.10;;;;;;;32.14;43.99;93902.31;6080815;23;20096;-84
2021/06/23 04:44:39;;;;;;;38.05;10.35;;;;;;;32.82;42.51;93912.53;6115171;23;20322;-84
2021/06/23 04:47:06;;;;;;;37.28;10.68;;;;;;;33.37;42.00;93910.81;6084244;23;20399;-83
2021/06/23 04:49:32;;;;;;;37.38;10.15;;;;;;;33.86;40.43;93906.75;6094709;23;20033;-84
2021/06/23 04:51:58;;;;;;;31.70;9.57;;;;;;;34.11;39.91;93917.00;6111011;23;20010;-84
2021/06/23 04:54:26;;;;;;;38.13;9.38;;;;;;;34.68;39.37;93912.63;6109030;23;20097;-84
2021/06/23 04:56:52;;;;;;;27.20;9.13;;;;;;;35.18;38.52;93920.06;6089520;23;20028;-84
2021/06/23 04:59:18;;;;;;;37.60;10.30;;;;;;;35.09;37.99;93923.44;6110377;23;20018;-83
2021/06/23 05:01:46;;;;;;;38.58;9.77;;;;;;;35.22;37.05;93907.00;6114659;23;20018;-83
2021/06/23 05:04:11;;;;;;;31.05;9.68;;;;;;;35.43;37.14;93902.75;6118489;23;20005;-83
2021/06/23 05:06:40;;;;;;;47.78;10.93;;;;;;;35.24;37.68;93923.03;6112732;23;20398;-84
2021/06/23 05:09:06;;;;;;;42.47;9.98;;;;;;;35.49;37.27;93937.47;6112376;23;20072;-83
2021/06/23 05:11:33;;;;;;;38.03;11.38;;;;;;;35.53;37.39;93938.09;6114846;23;20089;-83
2021/06/23 05:14:00;;;;;;;41.67;10.43;;;;;;;35.56;36.93;93939.22;6114053;23;20014;-83
2021/06/23 05:16:26;;;;;;;46.83;11.13;;;;;;;35.27;38.11;93922.91;6091912;23;20026;-84
2021/06/23 05:18:53;;;;;;;32.35;12.23;;;;;;;35.80;37.00;93931.34;6151974;23;20063;-83
2021/06/23 05:21:19;;;;;;;34.15;9.98;;;;;;;36.07;36.71;93933.53;6140915;23;20013;-84
2021/06/23 05:23:50;;;;;;;45.05;10.10;;;;;;;36.51;35.37;93923.25;6142370;23;20020;-83
2021/06/23 05:26:15;;;;;;;42.92;11.13;;;;;;;36.32;36.07;93936.13;6111154;23;20027;-83
2021/06/23 05:29:03;;;;;;;36.28;10.98;;;;;;;37.03;34.88;93939.72;6137512;23;20018;-84
2021/06/23 05:31:28;;;;;;;29.67;10.55;;;;;;;36.78;34.59;93932.44;6147661;23;20555;-83
2021/06/23 05:33:54;;;;;;;40.25;11.80;;;;;;;37.39;33.90;93935.53;6141070;23;20005;-83
2021/06/23 05:36:22;;;;;;;43.00;10.73;;;;;;;37.82;33.37;93935.28;6126429;23;20315;-84
2021/06/23 05:38:48;;;;;;;35.22;8.80;;;;;;;37.55;32.75;93907.69;6141862;23;20365;-82
2021/06/23 05:41:19;;;;;;;36.35;9.68;;;;;;;37.68;32.77;93938.66;6139043;23;20013;-84
2021/06/23 05:43:45;;;;;;;36.22;10.18;;;;;;;38.16;32.75;93928.69;6130944;23;20048;-85
2021/06/23 05:46:11;;;;;;;32.88;10.52;;;;;;;38.56;31.67;93934.75;6116713;23;20041;-84
2021/06/23 05:48:37;;;;;;;34.25;9.93;;;;;;;38.60;31.38;93944.88;6119145;23;20424;-85
2021/06/23 05:51:05;;;;;;;38.63;12.18;;;;;;;37.99;32.17;93914.44;6122077;23;20471;-84
2021/06/23 05:53:33;;;;;;;44.90;10.82;;;;;;;38.89;31.38;93947.88;6141475;23;20452;-85
2021/06/23 05:55:58;;;;;;;34.63;10.45;;;;;;;38.85;31.56;93948.03;6135918;23;20051;-85
2021/06/23 05:58:27;;;;;;;35.80;11.10;;;;;;;39.04;30.86;93953.50;6112671;23;20359;-83
2021/06/23 06:00:53;;;;;;;31.42;10.40;;;;;;;38.63;31.28;93930.13;6113226;23;20448;-83
2021/06/23 06:03:24;;;;;;;32.65;9.48;;;;;;;38.65;31.21;93928.44;6138928;23;20043;-90
2021/06/23 06:06:02;;;;;;;39.53;9.00;;;;;;;38.66;31.96;93929.22;6055918;23;20416;-90
2021/06/23 06:08:40;;;;;;;36.97;10.52;;;;;;;38.43;31.34;93934.16;6125797;23;20065;-87
2021/06/23 06:11:12;;;;;;;29.58;9.00;;;;;;;38.90;31.41;93932.84;6082898;23;20022;-89
2021/06/23 06:13:41;;;;;;;31.40;9.05;;;;;;;38.47;32.10;93928.50;6021677;23;20581;-90
2021/06/23 06:16:07;;;;;;;33.67;9.85;;;;;;;39.62;30.81;93958.56;6082677;23;20009;-89
2021/06/23 06:19:15;;;;;;;37.70;10.20;;;;;;;40.04;29.37;93927.97;6042737;23;20014;-90
2021/06/23 06:21:54;;;;;;;;;;;;;;;;;;;;;
2021/06/23 06:24:19;;;;;;;35.35;10.38;;;;;;;41.08;28.59;93933.81;6062497;23;20025;-90
2021/06/23 06:27:38;;;;;;;37.80;8.93;;;;;;;41.76;27.77;93927.19;6055458;23;20030;-89
2021/06/23 06:30:13;;;;;;;39.00;9.23;;;;;;;42.10;27.24;93942.22;5937340;24;20263;-90
2021/06/23 06:32:39;;;;;;;32.38;10.05;;;;;;;42.73;26.19;93968.13;6006420;23;20099;-88
2021/06/23 06:35:14;;;;;;;34.60;9.77;;;;;;;42.96;26.41;93967.06;6109441;23;20112;-90
2021/06/23 06:37:40;;;;;;;41.22;10.80;;;;;;;42.92;25.78;93946.31;6098203;23;20018;-89
2021/06/23 06:40:26;;;;;;;38.22;11.07;;;;;;;43.00;25.92;93984.31;6112434;23;20512;-91
2021/06/23 06:42:52;;;;;;;41.78;11.45;;;;;;;43.17;26.11;93959.41;6080665;23;20057;-89
2021/06/23 06:45:55;;;;;;;;;;;;;;;;;;;;;
2021/06/23 06:48:28;;;;;;;35.10;9.38;;;;;;;42.36;26.50;93951.38;5969900;23;20385;-90
2021/06/23 06:50:53;;;;;;;30.17;10.10;;;;;;;42.03;27.25;93975.97;6052817;23;20037;-88
2021/06/23 06:53:38;;;;;;;41.30;11.07;;;;;;;41.04;28.20;93958.22;6108340;23;20081;-90
2021/06/23 06:56:06;;;;;;;34.00;9.63;;;;;;;41.18;28.33;93978.84;5966233;23;20021;-89
2021/06/23 06:58:45;;;;;;;32.42;9.55;;;;;;;42.72;26.93;93988.84;6023201;23;20058;-89
2021/06/23 07:01:41;;;;;;;34.30;9.43;;;;;;;43.28;26.13;93967.06;6075780;23;20281;-88
2021/06/23 07:05:05;;;;;;;47.63;10.95;;;;;;;43.86;25.30;93972.00;6107983;23;20006;-89
2021/06/23 07:07:34;;;;;;;40.65;10.57;;;;;;;44.15;24.96;93961.69;5998608;23;20119;-89
2021/06/23 07:10:05;;;;;;;30.42;9.63;;;;;;;43.90;25.10;93958.59;6057124;23;20014;-89
2021/06/23 07:16:09;;;;;;;;;;;;;;;;;;;;;
2021/06/23 07:18:48;;;;;;;44.70;10.50;;;;;;;42.45;26.86;93953.22;5812727;24;20029;-89
2021/06/23 07:21:20;;;;;;;34.97;10.73;;;;;;;43.19;26.05;93993.81;5971181;23;20019;-83
2021/06/23 07:23:57;;;;;;;46.70;10.85;;;;;;;43.65;24.85;93995.63;6085013;23;20104;-84
2021/06/23 07:26:23;;;;;;;38.58;11.18;;;;;;;43.24;25.90;93988.78;6111228;23;20026;-83
2021/06/23 07:28:54;;;;;;;38.53;10.18;;;;;;;43.75;25.41;93982.28;6139135;23;20373;-83
2021/06/23 07:31:43;;;;;;;35.47;9.77;;;;;;;43.82;25.42;93993.72;6111432;23;20056;-84
2021/06/23 07:36:56;;;;;;;42.80;11.23;;;;;;;43.73;25.70;93991.16;6140381;23;20040;-82
2021/06/23 07:39:23;;;;;;;43.63;12.10;;;;;;;43.98;25.24;94001.41;6140495;23;20045;-84
2021/06/23 07:41:50;;;;;;;45.47;11.57;;;;;;;44.52;24.85;94004.16;6141498;23;20021;-84
2021/06/23 07:44:22;;;;;;;38.45;10.23;;;;;;;45.00;23.11;93992.03;6098418;23;20105;-83
2021/06/23 07:46:52;;;;;;;34.10;10.48;;;;;;;45.54;23.30;93990.53;6146366;23;20087;-83
2021/06/23 07:49:20;;;;;;;64.07;12.88;;;;;;;45.86;23.02;93990.97;6145620;23;20009;-84
2021/06/23 07:54:23;;;;;;;38.78;10.25;;;;;;;46.00;23.09;93994.69;6140261;23;20031;-83
2021/06/23 08:10:25;;;;;;;36.30;10.60;;;;;;;47.78;20.56;93999.13;6135373;23;20011;-85
2021/06/23 08:12:59;;;;;;;38.28;10.00;;;;;;;48.79;19.84;94012.66;6092688;23;20444;-85
2021/06/23 08:15:34;;;;;;;35.55;9.88;;;;;;;49.27;20.02;94018.03;6109450;23;20032;-84
2021/06/23 08:18:10;;;;;;;35.63;9.80;;;;;;;48.88;19.45;94010.22;6141834;23;20065;-84
2021/06/23 08:20:39;;;;;;;38.22;9.85;;;;;;;49.10;19.14;94009.16;6112520;23;20064;-85
2021/06/23 08:23:06;;;;;;;43.33;10.77;;;;;;;49.02;19.44;94003.34;6138829;23;20029;-86
2021/06/23 08:25:34;;;;;;;39.65;10.20;;;;;;;48.98;19.40;93991.69;6118283;23;20119;-85
2021/06/23 08:28:00;;;;;;;34.17;10.07;;;;;;;49.47;18.96;94008.28;6123799;23;20016;-84
2021/06/23 08:30:26;;;;;;;39.92;8.93;;;;;;;49.80;18.03;94006.97;6126921;23;20421;-86
2021/06/23 08:32:52;;;;;;;33.20;7.82;;;;;;;50.12;15.89;94001.22;6136418;23;20041;-84
2021/06/23 08:35:18;;;;;;;34.03;8.80;;;;;;;50.19;16.24;94017.44;6099004;23;20017;-83
2021/06/23 08:37:49;;;;;;;39.85;8.68;;;;;;;50.19;16.06;94006.22;6113351;23;20445;-83
2021/06/23 08:40:20;;;;;;;24.35;8.05;;;;;;;50.23;16.95;94023.50;6123680;23;20350;-82
2021/06/23 08:42:48;;;;;;;29.33;8.20;;;;;;;49.20;18.15;94012.31;6151782;23;20009;-85
2021/06/23 08:45:17;;;;;;;30.40;8.57;;;;;;;49.24;17.89;94018.34;6139150;23;20020;-85
2021/06/23 08:47:45;;;;;;;40.65;10.05;;;;;;;48.47;18.89;94012.59;6141065;23;20017;-82
2021/06/23 08:50:16;;;;;;;36.90;8.70;;;;;;;47.91;18.70;94016.00;6145451;23;20476;-82
2021/06/23 08:52:42;;;;;;;38.17;9.35;;;;;;;47.14;19.33;94011.88;6147233;23;20489;-84
2021/06/23 08:55:10;;;;;;;37.67;9.52;;;;;;;47.08;19.13;93986.00;6138189;23;20005;-85
2021/06/23 08:57:36;;;;;;;33.45;7.65;;;;;;;47.17;18.14;94000.41;6114582;23;20005;-83
2021/06/23 09:00:07;;;;;;;33.45;7.68;;;;;;;47.55;18.77;94020.97;6113113;23;20028;-83
2021/06/23 09:02:36;;;;;;;29.58;7.85;;;;;;;47.90;17.06;94019.38;6137384;23;20383;-85
2021/06/23 09:05:04;;;;;;;33.08;7.35;;;;;;;48.14;16.37;94022.91;6113337;23;20079;-84
2021/06/23 09:07:47;;;;;;;28.73;7.18;;;;;;;48.26;16.93;94022.75;6138982;23;20455;-84
2021/06/23 09:10:28;;;;;;;33.97;9.48;;;;;;;47.50;16.34;94029.41;6144070;23;20304;-85
2021/06/23 09:13:09;;;;;;;32.15;8.25;;;;;;;46.55;17.14;94024.47;6153520;23;20056;-83
2021/06/23 09:16:04;;;;;;;28.33;7.18;;;;;;;46.43;18.73;94023.75;6141487;23;20021;-84
2021/06/23 09:18:37;;;;;;;40.95;8.10;;;;;;;44.97;18.41;93984.69;6139484;23;20031;-84
2021/06/23 09:21:18;;;;;;;30.60;7.50;;;;;;;44.17;20.33;93979.44;6138516;23;20329;-85
2021/06/23 09:23:52;;;;;;;43.10;8.80;;;;;;;44.04;20.56;94016.09;6106927;23;20021;-91
2021/06/23 09:26:23;;;;;;;40.20;9.18;;;;;;;43.26;21.10;94020.41;6146523;23;20661;-87
2021/06/23 09:29:06;;;;;;;31.50;8.95;;;;;;;42.67;21.93;94014.53;6147958;23;20009;-87
2021/06/23 09:31:54;;;;;;;38.05;9.32;;;;;;;42.65;22.60;94008.72;6146383;23;20040;-91
2021/06/23 09:34:30;;;;;;;45.63;8.18;;;;;;;41.87;23.18;93991.19;6142062;23;20005;-88
2021/06/23 09:36:56;;;;;;;37.35;7.28;;;;;;;41.11;23.77;94004.16;6150874;23;20248;-85
2021/06/23 09:39:28;;;;;;;33.47;7.05;;;;;;;40.13;24.22;94017.22;6138034;23;20471;-87
2021/06/23 09:41:54;;;;;;;29.25;7.03;;;;;;;39.72;24.62;94009.81;6109490;23;20460;-82
2021/06/23 09:44:22;;;;;;;27.50;7.68;;;;;;;40.00;26.51;94013.19;6137468;23;20022;-87
2021/06/23 09:46:49;;;;;;;43.15;8.75;;;;;;;40.01;25.56;94009.19;6093496;23;20018;-88
2021/06/23 09:49:23;;;;;;;28.15;7.65;;;;;;;40.18;25.56;93999.19;6136920;23;20010;-90
2021/06/23 09:51:59;;;;;;;45.15;8.00;;;;;;;40.01;24.63;94014.72;6149459;23;20489;-88
2021/06/23 09:54:28;;;;;;;36.78;7.85;;;;;;;39.98;25.04;93990.78;6110493;23;20025;-89
2021/06/23 09:57:06;;;;;;;31.77;7.22;;;;;;;39.17;24.42;94012.09;6137703;23;20010;-89
2021/06/23 09:59:37;;;;;;;35.58;7.65;;;;;;;39.10;26.27;93966.19;6140801;23;20021;-86
2021/06/23 10:02:07;;;;;;;40.50;9.10;;;;;;;38.82;25.48;93971.03;6139774;23;20076;-87
2021/06/23 10:04:34;;;;;;;37.20;7.78;;;;;;;38.68;26.89;94015.91;6146229;23;20017;-86
2021/06/23 10:07:02;;;;;;;40.72;9.10;;;;;;;38.50;25.92;93963.47;6149520;23;20001;-82
2021/06/23 10:09:31;;;;;;;26.27;6.80;;;;;;;38.37;26.64;94002.25;6107147;23;20022;-84
2021/06/23 10:12:05;;;;;;;37.22;8.70;;;;;;;38.20;28.03;94005.81;6136447;23;20043;-84
2021/06/23 10:14:34;;;;;;;29.20;7.28;;;;;;;38.36;26.96;94009.03;6110320;23;20196;-87
2021/06/23 10:17:04;;;;;;;31.70;8.05;;;;;;;38.26;27.41;94009.50;6142004;23;20544;-87
2021/06/23 10:19:30;;;;;;;31.40;7.18;;;;;;;38.02;26.54;94004.56;6146980;23;20119;-87
2021/06/23 10:21:58;;;;;;;36.40;7.78;;;;;;;38.19;26.32;94001.50;6149713;23;20001;-87
2021/06/23 10:24:27;;;;;;;31.73;7.03;;;;;;;38.15;28.11;93991.41;6133959;23;20136;-83
2021/06/23 10:26:53;;;;;;;33.53;7.07;;;;;;;38.27;28.21;93997.22;6135641;23;20068;-87
2021/06/23 10:29:28;;;;;;;33.53;8.10;;;;;;;38.56;28.57;93994.75;6132714;23;20024;-87
2021/06/23 10:31:55;;;;;;;28.60;8.57;;;;;;;38.65;27.66;93994.75;6141352;23;20342;-85
2021/06/23 10:34:21;;;;;;;33.78;8.02;;;;;;;38.63;27.15;93991.66;6135414;23;20037;-87
2021/06/23 10:36:48;;;;;;;31.15;6.95;;;;;;;38.40;27.69;93981.25;6150830;23;20083;-88
2021/06/23 10:39:16;;;;;;;36.85;8.38;;;;;;;38.24;27.13;93998.13;6135309;23;20022;-86
2021/06/23 10:41:44;;;;;;;37.10;7.93;;;;;;;38.17;28.11;93998.47;6137263;23;20746;-87
2021/06/23 10:44:21;;;;;;;34.58;10.00;;;;;;;37.91;28.27;93987.72;6135876;23;20092;-87
2021/06/23 10:46:51;;;;;;;31.20;8.20;;;;;;;38.01;28.80;93989.28;6142587;23;20448;-87
2021/06/23 10:49:53;;;;;;;26.10;7.53;;;;;;;37.71;28.73;93985.38;6145069;23;20645;-87
2021/06/23 10:52:21;;;;;;;29.27;6.93;;;;;;;37.36;28.77;93994.31;6147123;23;20059;-87
2021/06/23 10:55:01;;;;;;;27.75;6.72;;;;;;;37.12;28.84;93991.34;6152060;23;20016;-88
2021/06/23 10:57:39;;;;;;;30.60;7.80;;;;;;;37.17;29.21;93986.00;6137075;23;20152;-87
2021/06/23 11:00:11;;;;;;;30.17;7.90;;;;;;;37.38;28.65;93986.38;6138540;23;20471;-86
2021/06/23 11:02:39;;;;;;;31.42;6.97;;;;;;;37.56;30.24;93991.94;6136729;23;20025;-86
2021/06/23 11:05:17;;;;;;;44.08;8.85;;;;;;;37.64;29.65;93991.19;6140408;23;20021;-86
2021/06/23 11:07:49;;;;;;;30.58;8.52;;;;;;;37.85;30.07;93986.78;6145475;23;20024;-86
2021/06/23 11:10:15;;;;;;;32.55;8.27;;;;;;;38.02;30.21;93990.78;6136069;23;20059;-86
2021/06/23 11:15:18;;;;;;;23.73;7.00;;;;;;;38.08;29.11;93986.19;6139479;23;20370;-86
2021/06/23 11:17:46;;;;;;;37.92;8.32;;;;;;;38.14;28.35;93989.09;6108938;23;20032;-84
2021/06/23 11:20:21;;;;;;;34.60;8.38;;;;;;;38.19;28.76;93982.97;6109602;23;20018;-86
2021/06/23 11:22:48;;;;;;;26.60;7.57;;;;;;;38.20;27.11;93986.50;6108096;23;20028;-83
2021/06/23 11:25:27;;;;;;;36.10;8.68;;;;;;;37.92;28.35;93983.72;6136731;23;20036;-87
2021/06/23 11:28:08;;;;;;;36.05;10.15;;;;;;;37.76;27.52;93989.53;6148955;23;20052;-84
2021/06/23 11:30:34;;;;;;;32.22;7.72;;;;;;;37.93;27.08;93976.97;6136831;23;20021;-85
2021/06/23 11:33:27;;;;;;;33.72;7.10;;;;;;;38.17;27.53;93972.38;6137287;23;20360;-85
2021/06/23 11:35:54;;;;;;;29.73;7.93;;;;;;;38.25;28.25;93977.59;6139165;23;20017;-85
2021/06/23 11:38:20;;;;;;;34.72;8.15;;;;;;;38.29;27.50;93973.44;6135541;23;20018;-87
2021/06/23 11:40:49;;;;;;;26.63;7.18;;;;;;;38.05;28.41;93970.56;6135723;23;20028;-85
2021/06/23 11:43:14;;;;;;;30.08;7.97;;;;;;;37.83;27.11;93975.41;6109439;23;20044;-86
2021/06/23 11:45:40;;;;;;;38.55;8.75;;;;;;;37.65;28.57;93980.94;6140214;23;20484;-84
2021/06/23 11:48:06;;;;;;;30.42;8.57;;;;;;;37.65;28.79;93983.69;6110344;23;20698;-88
2021/06/23 11:50:32;;;;;;;29.30;8.68;;;;;;;37.30;27.89;93983.91;6138957;23;20041;-86
2021/06/23 11:52:58;;;;;;;28.35;7.82;;;;;;;37.52;29.03;93983.03;6135777;23;20024;-85
2021/06/23 11:55:24;;;;;;;35.45;8.52;;;;;;;37.41;28.52;93990.97;6145509;23;20031;-85
2021/06/23 11:57:59;;;;;;;39.13;8.13;;;;;;;37.45;28.22;93983.31;6149944;23;20392;-88
2021/06/23 12:00:27;;;;;;;38.20;8.98;;;;;;;37.16;27.22;93976.19;6113798;23;20531;-87
2021/06/23 12:02:53;;;;;;;25.05;7.45;;;;;;;37.28;27.62;93983.59;6137650;23;20371;-85
2021/06/23 12:05:19;;;;;;;32.78;8.32;;;;;;;37.22;28.11;93982.66;6141348;23;20143;-87
2021/06/23 12:07:44;;;;;;;26.30;8.27;;;;;;;37.09;27.47;93978.50;6138961;23;20259;-86